sensor_id;sensor_type;location;lat;lon;timestamp;P1;durP1;ratioP1;P2;durP2;ratioP2
30020;SDS011;16861;52.294;7.760;2023-05-23T00:01:19;6.88;;;5.93;;
30020;SDS011;16861;52.294;7.760;2023-05-23T00:03:46;8.85;;;6.07;;
30020;SDS011;16861;52.294;7.760;2023-05-23T00:06:18;11.40;;;6.20;;
30020;SDS011;16861;52.294;7.760;2023-05-23T00:08:46;6.72;;;6.03;;
30020;SDS011;16861;52.294;7.760;2023-05-23T00:11:13;10.30;;;5.63;;
30020;SDS011;16861;52.294;7.760;2023-05-23T00:13:40;7.13;;;6.38;;
30020;SDS011;16861;52.294;7.760;2023-05-23T00:16:07;8.43;;;6.60;;
30020;SDS011;16861;52.294;7.760;2023-05-23T00:18:37;8.23;;;6.90;;
30020;SDS011;16861;52.294;7.760;2023-05-23T00:21:08;9.60;;;7.10;;
30020;SDS011;16861;52.294;7.760;2023-05-23T00:23:35;8.02;;;6.85;;
30020;SDS011;16861;52.294;7.760;2023-05-23T00:26:01;7.60;;;6.80;;
30020;SDS011;16861;52.294;7.760;2023-05-23T00:28:29;9.40;;;7.18;;
30020;SDS011;16861;52.294;7.760;2023-05-23T00:30:55;8.90;;;7.93;;
30020;SDS011;16861;52.294;7.760;2023-05-23T00:33:22;9.00;;;7.60;;
30020;SDS011;16861;52.294;7.760;2023-05-23T00:35:48;9.00;;;7.50;;
30020;SDS011;16861;52.294;7.760;2023-05-23T00:38:16;10.60;;;7.43;;
30020;SDS011;16861;52.294;7.760;2023-05-23T00:40:43;10.13;;;7.63;;
30020;SDS011;16861;52.294;7.760;2023-05-23T00:43:09;7.95;;;7.15;;
30020;SDS011;16861;52.294;7.760;2023-05-23T00:45:36;8.80;;;7.85;;
30020;SDS011;16861;52.294;7.760;2023-05-23T00:48:03;9.63;;;7.90;;
30020;SDS011;16861;52.294;7.760;2023-05-23T00:50:31;11.32;;;7.57;;
30020;SDS011;16861;52.294;7.760;2023-05-23T00:52:59;8.32;;;7.03;;
30020;SDS011;16861;52.294;7.760;2023-05-23T00:55:27;10.30;;;8.20;;
30020;SDS011;16861;52.294;7.760;2023-05-23T00:57:54;10.82;;;7.97;;
30020;SDS011;16861;52.294;7.760;2023-05-23T01:00:22;10.05;;;7.43;;
30020;SDS011;16861;52.294;7.760;2023-05-23T01:02:51;8.80;;;6.80;;
30020;SDS011;16861;52.294;7.760;2023-05-23T01:05:19;8.52;;;7.18;;
30020;SDS011;16861;52.294;7.760;2023-05-23T01:07:50;8.35;;;6.90;;
30020;SDS011;16861;52.294;7.760;2023-05-23T01:10:24;9.63;;;7.18;;
30020;SDS011;16861;52.294;7.760;2023-05-23T01:21:33;7.07;;;6.07;;
30020;SDS011;16861;52.294;7.760;2023-05-23T01:27:04;7.03;;;6.32;;
30020;SDS011;16861;52.294;7.760;2023-05-23T01:29:37;11.00;;;8.57;;
30020;SDS011;16861;52.294;7.760;2023-05-23T01:32:09;9.98;;;7.65;;
30020;SDS011;16861;52.294;7.760;2023-05-23T01:34:38;11.32;;;7.57;;
30020;SDS011;16861;52.294;7.760;2023-05-23T01:37:09;9.75;;;7.70;;
30020;SDS011;16861;52.294;7.760;2023-05-23T01:39:36;11.73;;;8.07;;
30020;SDS011;16861;52.294;7.760;2023-05-23T01:42:04;9.60;;;7.80;;
30020;SDS011;16861;52.294;7.760;2023-05-23T01:44:32;13.10;;;8.57;;
30020;SDS011;16861;52.294;7.760;2023-05-23T01:47:04;11.57;;;9.23;;
30020;SDS011;16861;52.294;7.760;2023-05-23T01:49:32;11.80;;;8.60;;
30020;SDS011;16861;52.294;7.760;2023-05-23T01:52:02;12.27;;;9.45;;
30020;SDS011;16861;52.294;7.760;2023-05-23T01:54:29;12.68;;;9.82;;
30020;SDS011;16861;52.294;7.760;2023-05-23T01:56:58;16.83;;;10.80;;
30020;SDS011;16861;52.294;7.760;2023-05-23T01:59:26;16.05;;;11.43;;
30020;SDS011;16861;52.294;7.760;2023-05-23T02:01:53;15.38;;;12.00;;
30020;SDS011;16861;52.294;7.760;2023-05-23T02:04:20;17.42;;;11.93;;
30020;SDS011;16861;52.294;7.760;2023-05-23T02:06:47;16.42;;;11.85;;
30020;SDS011;16861;52.294;7.760;2023-05-23T02:09:13;19.77;;;13.85;;
30020;SDS011;16861;52.294;7.760;2023-05-23T02:11:40;19.08;;;13.07;;
30020;SDS011;16861;52.294;7.760;2023-05-23T02:14:06;18.13;;;12.90;;
30020;SDS011;16861;52.294;7.760;2023-05-23T02:16:34;20.10;;;12.95;;
30020;SDS011;16861;52.294;7.760;2023-05-23T02:19:01;21.70;;;14.95;;
30020;SDS011;16861;52.294;7.760;2023-05-23T02:21:28;21.40;;;13.75;;
30020;SDS011;16861;52.294;7.760;2023-05-23T02:23:55;22.77;;;15.13;;
30020;SDS011;16861;52.294;7.760;2023-05-23T02:26:21;25.15;;;14.82;;
30020;SDS011;16861;52.294;7.760;2023-05-23T02:28:48;21.48;;;15.13;;
30020;SDS011;16861;52.294;7.760;2023-05-23T02:31:15;26.67;;;15.60;;
30020;SDS011;16861;52.294;7.760;2023-05-23T02:33:42;20.83;;;13.80;;
30020;SDS011;16861;52.294;7.760;2023-05-23T02:36:09;22.58;;;15.10;;
30020;SDS011;16861;52.294;7.760;2023-05-23T02:38:35;22.95;;;14.30;;
30020;SDS011;16861;52.294;7.760;2023-05-23T02:41:02;20.40;;;12.95;;
30020;SDS011;16861;52.294;7.760;2023-05-23T02:43:29;17.42;;;12.30;;
30020;SDS011;16861;52.294;7.760;2023-05-23T02:45:56;16.77;;;11.23;;
30020;SDS011;16861;52.294;7.760;2023-05-23T02:48:23;15.02;;;11.02;;
30020;SDS011;16861;52.294;7.760;2023-05-23T02:50:50;16.27;;;10.98;;
30020;SDS011;16861;52.294;7.760;2023-05-23T02:53:16;16.35;;;11.27;;
30020;SDS011;16861;52.294;7.760;2023-05-23T02:55:43;17.67;;;11.10;;
30020;SDS011;16861;52.294;7.760;2023-05-23T02:58:10;18.83;;;10.63;;
30020;SDS011;16861;52.294;7.760;2023-05-23T03:00:36;14.27;;;10.18;;
30020;SDS011;16861;52.294;7.760;2023-05-23T03:03:03;15.68;;;9.77;;
30020;SDS011;16861;52.294;7.760;2023-05-23T03:05:30;13.50;;;10.00;;
30020;SDS011;16861;52.294;7.760;2023-05-23T03:07:56;15.52;;;9.65;;
30020;SDS011;16861;52.294;7.760;2023-05-23T03:10:23;16.60;;;10.48;;
30020;SDS011;16861;52.294;7.760;2023-05-23T03:12:50;13.70;;;10.10;;
30020;SDS011;16861;52.294;7.760;2023-05-23T03:15:16;15.68;;;9.57;;
30020;SDS011;16861;52.294;7.760;2023-05-23T03:17:43;15.15;;;9.82;;
30020;SDS011;16861;52.294;7.760;2023-05-23T03:20:10;13.13;;;10.05;;
30020;SDS011;16861;52.294;7.760;2023-05-23T03:22:36;15.05;;;9.88;;
30020;SDS011;16861;52.294;7.760;2023-05-23T03:25:03;12.10;;;9.23;;
30020;SDS011;16861;52.294;7.760;2023-05-23T03:27:30;12.90;;;9.60;;
30020;SDS011;16861;52.294;7.760;2023-05-23T03:29:56;15.00;;;9.88;;
30020;SDS011;16861;52.294;7.760;2023-05-23T03:32:23;11.48;;;9.30;;
30020;SDS011;16861;52.294;7.760;2023-05-23T03:34:49;14.20;;;9.52;;
30020;SDS011;16861;52.294;7.760;2023-05-23T03:37:16;11.75;;;9.50;;
30020;SDS011;16861;52.294;7.760;2023-05-23T03:39:43;13.18;;;9.50;;
30020;SDS011;16861;52.294;7.760;2023-05-23T03:42:09;11.90;;;9.10;;
30020;SDS011;16861;52.294;7.760;2023-05-23T03:44:36;13.93;;;9.70;;
30020;SDS011;16861;52.294;7.760;2023-05-23T03:47:02;10.70;;;8.88;;
30020;SDS011;16861;52.294;7.760;2023-05-23T03:49:29;12.32;;;10.10;;
30020;SDS011;16861;52.294;7.760;2023-05-23T03:51:56;17.98;;;11.27;;
30020;SDS011;16861;52.294;7.760;2023-05-23T03:54:23;14.82;;;10.48;;
30020;SDS011;16861;52.294;7.760;2023-05-23T03:56:49;14.48;;;10.52;;
30020;SDS011;16861;52.294;7.760;2023-05-23T03:59:17;10.90;;;9.63;;
30020;SDS011;16861;52.294;7.760;2023-05-23T04:01:43;13.93;;;10.35;;
30020;SDS011;16861;52.294;7.760;2023-05-23T04:04:10;15.95;;;11.35;;
30020;SDS011;16861;52.294;7.760;2023-05-23T04:06:36;16.13;;;10.77;;
30020;SDS011;16861;52.294;7.760;2023-05-23T04:09:03;19.17;;;10.82;;
30020;SDS011;16861;52.294;7.760;2023-05-23T04:11:31;16.60;;;11.68;;
30020;SDS011;16861;52.294;7.760;2023-05-23T04:13:58;17.73;;;12.55;;
30020;SDS011;16861;52.294;7.760;2023-05-23T04:16:24;18.67;;;13.30;;
30020;SDS011;16861;52.294;7.760;2023-05-23T04:18:51;15.48;;;12.25;;
30020;SDS011;16861;52.294;7.760;2023-05-23T04:21:19;19.02;;;13.00;;
30020;SDS011;16861;52.294;7.760;2023-05-23T04:23:46;17.73;;;11.85;;
30020;SDS011;16861;52.294;7.760;2023-05-23T04:26:12;18.73;;;12.93;;
30020;SDS011;16861;52.294;7.760;2023-05-23T04:28:39;21.27;;;13.27;;
30020;SDS011;16861;52.294;7.760;2023-05-23T04:31:05;18.63;;;12.68;;
30020;SDS011;16861;52.294;7.760;2023-05-23T04:33:33;20.67;;;11.88;;
30020;SDS011;16861;52.294;7.760;2023-05-23T04:36:00;17.58;;;12.05;;
30020;SDS011;16861;52.294;7.760;2023-05-23T04:38:27;14.13;;;10.38;;
30020;SDS011;16861;52.294;7.760;2023-05-23T04:40:54;12.90;;;9.52;;
30020;SDS011;16861;52.294;7.760;2023-05-23T04:43:20;14.68;;;10.45;;
30020;SDS011;16861;52.294;7.760;2023-05-23T04:45:47;18.17;;;11.30;;
30020;SDS011;16861;52.294;7.760;2023-05-23T04:48:15;14.98;;;10.18;;
30020;SDS011;16861;52.294;7.760;2023-05-23T04:50:42;15.73;;;9.55;;
30020;SDS011;16861;52.294;7.760;2023-05-23T04:53:09;16.77;;;9.80;;
30020;SDS011;16861;52.294;7.760;2023-05-23T04:55:36;12.52;;;9.05;;
30020;SDS011;16861;52.294;7.760;2023-05-23T04:58:03;16.70;;;10.25;;
30020;SDS011;16861;52.294;7.760;2023-05-23T05:00:29;19.92;;;10.48;;
30020;SDS011;16861;52.294;7.760;2023-05-23T05:02:56;17.77;;;9.77;;
30020;SDS011;16861;52.294;7.760;2023-05-23T05:05:23;17.42;;;9.80;;
30020;SDS011;16861;52.294;7.760;2023-05-23T05:07:49;15.48;;;9.48;;
30020;SDS011;16861;52.294;7.760;2023-05-23T05:10:16;18.20;;;10.23;;
30020;SDS011;16861;52.294;7.760;2023-05-23T05:12:43;21.20;;;10.57;;
30020;SDS011;16861;52.294;7.760;2023-05-23T05:15:12;22.88;;;9.93;;
30020;SDS011;16861;52.294;7.760;2023-05-23T05:17:38;15.88;;;9.10;;
30020;SDS011;16861;52.294;7.760;2023-05-23T05:20:06;17.95;;;8.75;;
30020;SDS011;16861;52.294;7.760;2023-05-23T05:22:36;17.20;;;8.43;;
30020;SDS011;16861;52.294;7.760;2023-05-23T05:25:08;15.60;;;8.02;;
30020;SDS011;16861;52.294;7.760;2023-05-23T05:27:36;16.23;;;8.75;;
30020;SDS011;16861;52.294;7.760;2023-05-23T05:30:06;19.45;;;10.00;;
30020;SDS011;16861;52.294;7.760;2023-05-23T05:32:34;17.83;;;9.40;;
30020;SDS011;16861;52.294;7.760;2023-05-23T05:35:01;16.33;;;8.57;;
30020;SDS011;16861;52.294;7.760;2023-05-23T05:37:28;13.45;;;7.50;;
30020;SDS011;16861;52.294;7.760;2023-05-23T05:39:55;10.20;;;6.35;;
30020;SDS011;16861;52.294;7.760;2023-05-23T05:42:22;9.77;;;6.00;;
30020;SDS011;16861;52.294;7.760;2023-05-23T05:44:48;10.45;;;5.55;;
30020;SDS011;16861;52.294;7.760;2023-05-23T05:47:15;10.20;;;5.72;;
30020;SDS011;16861;52.294;7.760;2023-05-23T05:49:42;9.55;;;4.95;;
30020;SDS011;16861;52.294;7.760;2023-05-23T05:52:09;8.00;;;4.47;;
30020;SDS011;16861;52.294;7.760;2023-05-23T05:54:35;6.28;;;4.28;;
30020;SDS011;16861;52.294;7.760;2023-05-23T05:57:02;6.63;;;3.38;;
30020;SDS011;16861;52.294;7.760;2023-05-23T05:59:29;7.07;;;3.85;;
30020;SDS011;16861;52.294;7.760;2023-05-23T06:01:57;7.20;;;3.00;;
30020;SDS011;16861;52.294;7.760;2023-05-23T06:04:24;4.10;;;2.80;;
30020;SDS011;16861;52.294;7.760;2023-05-23T06:06:51;6.47;;;3.20;;
30020;SDS011;16861;52.294;7.760;2023-05-23T06:09:17;3.88;;;2.60;;
30020;SDS011;16861;52.294;7.760;2023-05-23T06:11:44;5.07;;;2.50;;
30020;SDS011;16861;52.294;7.760;2023-05-23T06:14:11;3.42;;;2.40;;
30020;SDS011;16861;52.294;7.760;2023-05-23T06:16:38;3.75;;;2.55;;
30020;SDS011;16861;52.294;7.760;2023-05-23T06:19:05;3.80;;;2.42;;
30020;SDS011;16861;52.294;7.760;2023-05-23T06:21:32;2.95;;;1.90;;
30020;SDS011;16861;52.294;7.760;2023-05-23T06:23:58;2.80;;;1.63;;
30020;SDS011;16861;52.294;7.760;2023-05-23T06:26:25;2.65;;;2.00;;
30020;SDS011;16861;52.294;7.760;2023-05-23T06:28:52;3.50;;;2.10;;
30020;SDS011;16861;52.294;7.760;2023-05-23T06:31:18;2.85;;;1.98;;
30020;SDS011;16861;52.294;7.760;2023-05-23T06:33:45;2.65;;;1.60;;
30020;SDS011;16861;52.294;7.760;2023-05-23T06:36:11;4.03;;;2.05;;
30020;SDS011;16861;52.294;7.760;2023-05-23T06:38:38;3.28;;;2.17;;
30020;SDS011;16861;52.294;7.760;2023-05-23T06:41:04;4.05;;;2.15;;
30020;SDS011;16861;52.294;7.760;2023-05-23T06:43:32;2.85;;;2.08;;
30020;SDS011;16861;52.294;7.760;2023-05-23T06:45:59;5.25;;;2.40;;
30020;SDS011;16861;52.294;7.760;2023-05-23T06:48:25;4.15;;;2.25;;
30020;SDS011;16861;52.294;7.760;2023-05-23T06:50:52;2.78;;;2.20;;
30020;SDS011;16861;52.294;7.760;2023-05-23T06:53:18;2.83;;;2.15;;
30020;SDS011;16861;52.294;7.760;2023-05-23T06:55:45;3.70;;;2.40;;
30020;SDS011;16861;52.294;7.760;2023-05-23T06:58:12;3.45;;;1.92;;
30020;SDS011;16861;52.294;7.760;2023-05-23T07:00:39;3.90;;;2.17;;
30020;SDS011;16861;52.294;7.760;2023-05-23T07:03:06;4.50;;;2.10;;
30020;SDS011;16861;52.294;7.760;2023-05-23T07:05:33;3.47;;;2.20;;
30020;SDS011;16861;52.294;7.760;2023-05-23T07:08:05;4.75;;;2.17;;
30020;SDS011;16861;52.294;7.760;2023-05-23T07:10:32;5.72;;;2.90;;
30020;SDS011;16861;52.294;7.760;2023-05-23T07:13:00;4.97;;;3.30;;
30020;SDS011;16861;52.294;7.760;2023-05-23T07:15:27;4.68;;;3.17;;
30020;SDS011;16861;52.294;7.760;2023-05-23T07:17:54;10.13;;;4.00;;
30020;SDS011;16861;52.294;7.760;2023-05-23T07:20:20;7.72;;;3.80;;
30020;SDS011;16861;52.294;7.760;2023-05-23T07:22:47;8.57;;;3.70;;
30020;SDS011;16861;52.294;7.760;2023-05-23T07:25:16;11.80;;;3.47;;
30020;SDS011;16861;52.294;7.760;2023-05-23T07:27:42;9.23;;;4.40;;
30020;SDS011;16861;52.294;7.760;2023-05-23T07:30:09;8.90;;;3.63;;
30020;SDS011;16861;52.294;7.760;2023-05-23T07:32:36;7.45;;;3.88;;
30020;SDS011;16861;52.294;7.760;2023-05-23T07:35:03;9.95;;;3.90;;
30020;SDS011;16861;52.294;7.760;2023-05-23T07:37:30;7.07;;;3.30;;
30020;SDS011;16861;52.294;7.760;2023-05-23T07:39:56;10.35;;;3.53;;
30020;SDS011;16861;52.294;7.760;2023-05-23T07:42:23;10.18;;;3.38;;
30020;SDS011;16861;52.294;7.760;2023-05-23T07:44:50;8.18;;;3.28;;
30020;SDS011;16861;52.294;7.760;2023-05-23T07:47:16;8.45;;;3.25;;
30020;SDS011;16861;52.294;7.760;2023-05-23T07:49:43;7.43;;;3.00;;
30020;SDS011;16861;52.294;7.760;2023-05-23T07:52:10;5.97;;;2.63;;
30020;SDS011;16861;52.294;7.760;2023-05-23T07:54:36;8.57;;;2.85;;
30020;SDS011;16861;52.294;7.760;2023-05-23T07:57:03;6.32;;;2.83;;
30020;SDS011;16861;52.294;7.760;2023-05-23T07:59:30;6.28;;;2.88;;
30020;SDS011;16861;52.294;7.760;2023-05-23T08:01:56;9.45;;;3.30;;
30020;SDS011;16861;52.294;7.760;2023-05-23T08:04:23;6.97;;;2.78;;
30020;SDS011;16861;52.294;7.760;2023-05-23T08:06:50;8.38;;;3.00;;
30020;SDS011;16861;52.294;7.760;2023-05-23T08:09:30;7.25;;;2.90;;
30020;SDS011;16861;52.294;7.760;2023-05-23T08:11:57;7.57;;;3.38;;
30020;SDS011;16861;52.294;7.760;2023-05-23T08:14:23;5.45;;;3.45;;
30020;SDS011;16861;52.294;7.760;2023-05-23T08:17:03;9.40;;;3.78;;
30020;SDS011;16861;52.294;7.760;2023-05-23T14:21:44;6.80;;;2.13;;
30020;SDS011;16861;52.294;7.760;2023-05-23T14:24:11;7.53;;;2.00;;
30020;SDS011;16861;52.294;7.760;2023-05-23T14:26:37;5.40;;;2.28;;
30020;SDS011;16861;52.294;7.760;2023-05-23T14:29:04;4.70;;;2.10;;
30020;SDS011;16861;52.294;7.760;2023-05-23T14:31:31;8.02;;;2.72;;
30020;SDS011;16861;52.294;7.760;2023-05-23T14:33:58;6.03;;;2.08;;
30020;SDS011;16861;52.294;7.760;2023-05-23T14:36:24;9.35;;;3.00;;
30020;SDS011;16861;52.294;7.760;2023-05-23T14:38:53;9.98;;;2.53;;
30020;SDS011;16861;52.294;7.760;2023-05-23T14:41:20;6.93;;;2.20;;
30020;SDS011;16861;52.294;7.760;2023-05-23T14:43:48;6.38;;;2.53;;
30020;SDS011;16861;52.294;7.760;2023-05-23T14:46:16;7.22;;;2.60;;
30020;SDS011;16861;52.294;7.760;2023-05-23T14:48:43;7.72;;;2.45;;
30020;SDS011;16861;52.294;7.760;2023-05-23T14:51:09;7.38;;;2.42;;
30020;SDS011;16861;52.294;7.760;2023-05-23T14:53:46;9.48;;;2.92;;
30020;SDS011;16861;52.294;7.760;2023-05-23T14:56:12;4.90;;;1.95;;
30020;SDS011;16861;52.294;7.760;2023-05-23T14:58:39;10.85;;;2.60;;
30020;SDS011;16861;52.294;7.760;2023-05-23T15:01:11;6.80;;;2.15;;
30020;SDS011;16861;52.294;7.760;2023-05-23T15:03:38;6.70;;;2.20;;
30020;SDS011;16861;52.294;7.760;2023-05-23T15:06:05;8.75;;;2.25;;
30020;SDS011;16861;52.294;7.760;2023-05-23T15:08:32;7.82;;;2.40;;
30020;SDS011;16861;52.294;7.760;2023-05-23T15:10:59;9.10;;;2.55;;
30020;SDS011;16861;52.294;7.760;2023-05-23T15:13:25;7.82;;;2.10;;
30020;SDS011;16861;52.294;7.760;2023-05-23T15:15:52;7.15;;;1.98;;
30020;SDS011;16861;52.294;7.760;2023-05-23T15:18:19;6.15;;;2.22;;
30020;SDS011;16861;52.294;7.760;2023-05-23T15:21:05;7.68;;;2.50;;
30020;SDS011;16861;52.294;7.760;2023-05-23T15:23:32;8.93;;;2.35;;
30020;SDS011;16861;52.294;7.760;2023-05-23T15:25:59;8.55;;;2.47;;
30020;SDS011;16861;52.294;7.760;2023-05-23T15:28:25;8.90;;;2.55;;
30020;SDS011;16861;52.294;7.760;2023-05-23T15:30:52;5.97;;;2.28;;
30020;SDS011;16861;52.294;7.760;2023-05-23T15:33:19;5.80;;;2.45;;
30020;SDS011;16861;52.294;7.760;2023-05-23T15:35:47;7.47;;;2.42;;
30020;SDS011;16861;52.294;7.760;2023-05-23T15:38:13;9.82;;;2.50;;
30020;SDS011;16861;52.294;7.760;2023-05-23T15:40:44;6.32;;;2.55;;
30020;SDS011;16861;52.294;7.760;2023-05-23T15:43:14;11.48;;;2.42;;
30020;SDS011;16861;52.294;7.760;2023-05-23T15:45:40;10.85;;;2.80;;
30020;SDS011;16861;52.294;7.760;2023-05-23T15:48:07;7.55;;;2.25;;
30020;SDS011;16861;52.294;7.760;2023-05-23T15:50:34;8.63;;;2.45;;
30020;SDS011;16861;52.294;7.760;2023-05-23T15:53:01;5.13;;;1.85;;
30020;SDS011;16861;52.294;7.760;2023-05-23T15:55:27;7.80;;;2.22;;
30020;SDS011;16861;52.294;7.760;2023-05-23T15:57:54;5.03;;;2.20;;
30020;SDS011;16861;52.294;7.760;2023-05-23T16:00:20;6.88;;;2.33;;
30020;SDS011;16861;52.294;7.760;2023-05-23T16:02:47;7.32;;;2.20;;
30020;SDS011;16861;52.294;7.760;2023-05-23T16:05:14;4.53;;;1.70;;
30020;SDS011;16861;52.294;7.760;2023-05-23T16:07:40;7.13;;;2.42;;
30020;SDS011;16861;52.294;7.760;2023-05-23T16:10:07;9.82;;;2.45;;
30020;SDS011;16861;52.294;7.760;2023-05-23T16:12:34;7.60;;;2.65;;
30020;SDS011;16861;52.294;7.760;2023-05-23T16:15:01;4.90;;;1.83;;
30020;SDS011;16861;52.294;7.760;2023-05-23T16:17:28;6.88;;;2.05;;
30020;SDS011;16861;52.294;7.760;2023-05-23T16:19:54;4.25;;;1.92;;
30020;SDS011;16861;52.294;7.760;2023-05-23T16:22:21;7.78;;;2.42;;
30020;SDS011;16861;52.294;7.760;2023-05-23T16:24:48;8.93;;;2.65;;
30020;SDS011;16861;52.294;7.760;2023-05-23T16:27:15;11.27;;;2.42;;
30020;SDS011;16861;52.294;7.760;2023-05-23T16:29:41;9.68;;;3.00;;
30020;SDS011;16861;52.294;7.760;2023-05-23T16:32:08;8.02;;;2.42;;
30020;SDS011;16861;52.294;7.760;2023-05-23T16:34:35;6.28;;;2.42;;
30020;SDS011;16861;52.294;7.760;2023-05-23T16:37:01;6.45;;;2.35;;
30020;SDS011;16861;52.294;7.760;2023-05-23T16:39:28;8.70;;;2.17;;
30020;SDS011;16861;52.294;7.760;2023-05-23T16:41:55;8.07;;;2.53;;
30020;SDS011;16861;52.294;7.760;2023-05-23T16:44:25;8.18;;;2.38;;
30020;SDS011;16861;52.294;7.760;2023-05-23T16:46:52;9.50;;;2.55;;
30020;SDS011;16861;52.294;7.760;2023-05-23T16:49:18;9.55;;;2.63;;
30020;SDS011;16861;52.294;7.760;2023-05-23T16:51:45;8.38;;;2.20;;
30020;SDS011;16861;52.294;7.760;2023-05-23T16:54:14;9.90;;;2.55;;
30020;SDS011;16861;52.294;7.760;2023-05-23T16:56:41;6.35;;;2.10;;
30020;SDS011;16861;52.294;7.760;2023-05-23T16:59:08;8.40;;;2.50;;
30020;SDS011;16861;52.294;7.760;2023-05-23T17:01:34;9.38;;;2.15;;
30020;SDS011;16861;52.294;7.760;2023-05-23T17:04:02;7.30;;;2.10;;
30020;SDS011;16861;52.294;7.760;2023-05-23T17:06:29;8.30;;;2.30;;
30020;SDS011;16861;52.294;7.760;2023-05-23T17:08:56;11.23;;;2.78;;
30020;SDS011;16861;52.294;7.760;2023-05-23T17:11:23;7.65;;;2.28;;
30020;SDS011;16861;52.294;7.760;2023-05-23T17:13:50;9.07;;;2.88;;
30020;SDS011;16861;52.294;7.760;2023-05-23T17:16:17;9.00;;;2.30;;
30020;SDS011;16861;52.294;7.760;2023-05-23T17:18:45;11.27;;;2.45;;
30020;SDS011;16861;52.294;7.760;2023-05-23T17:21:12;7.72;;;2.30;;
30020;SDS011;16861;52.294;7.760;2023-05-23T17:23:39;6.40;;;1.80;;
30020;SDS011;16861;52.294;7.760;2023-05-23T17:26:06;7.63;;;2.10;;
30020;SDS011;16861;52.294;7.760;2023-05-23T17:28:32;7.03;;;2.20;;
30020;SDS011;16861;52.294;7.760;2023-05-23T17:30:59;7.45;;;2.47;;
30020;SDS011;16861;52.294;7.760;2023-05-23T17:33:26;6.72;;;2.47;;
30020;SDS011;16861;52.294;7.760;2023-05-23T17:35:52;6.70;;;2.25;;
30020;SDS011;16861;52.294;7.760;2023-05-23T17:38:19;8.63;;;2.35;;
30020;SDS011;16861;52.294;7.760;2023-05-23T17:40:45;7.97;;;2.15;;
30020;SDS011;16861;52.294;7.760;2023-05-23T17:43:12;9.15;;;2.45;;
30020;SDS011;16861;52.294;7.760;2023-05-23T17:45:39;14.50;;;2.95;;
30020;SDS011;16861;52.294;7.760;2023-05-23T17:48:06;8.63;;;2.60;;
30020;SDS011;16861;52.294;7.760;2023-05-23T17:50:33;7.80;;;2.58;;
30020;SDS011;16861;52.294;7.760;2023-05-23T17:52:59;10.73;;;2.70;;
30020;SDS011;16861;52.294;7.760;2023-05-23T17:55:29;11.88;;;3.33;;
30020;SDS011;16861;52.294;7.760;2023-05-23T17:57:56;11.50;;;2.42;;
30020;SDS011;16861;52.294;7.760;2023-05-23T18:00:22;6.05;;;2.10;;
30020;SDS011;16861;52.294;7.760;2023-05-23T18:02:50;11.15;;;2.20;;
30020;SDS011;16861;52.294;7.760;2023-05-23T18:05:17;10.80;;;2.88;;
30020;SDS011;16861;52.294;7.760;2023-05-23T18:07:45;10.35;;;2.67;;
30020;SDS011;16861;52.294;7.760;2023-05-23T18:10:13;10.20;;;2.70;;
30020;SDS011;16861;52.294;7.760;2023-05-23T18:12:39;10.02;;;2.63;;
30020;SDS011;16861;52.294;7.760;2023-05-23T18:15:06;18.38;;;2.78;;
30020;SDS011;16861;52.294;7.760;2023-05-23T18:17:35;9.32;;;2.58;;
30020;SDS011;16861;52.294;7.760;2023-05-23T18:20:02;6.68;;;2.03;;
30020;SDS011;16861;52.294;7.760;2023-05-23T18:22:29;9.35;;;2.40;;
30020;SDS011;16861;52.294;7.760;2023-05-23T18:24:58;15.15;;;2.45;;
30020;SDS011;16861;52.294;7.760;2023-05-23T18:27:25;11.23;;;2.88;;
30020;SDS011;16861;52.294;7.760;2023-05-23T18:29:52;6.82;;;2.00;;
30020;SDS011;16861;52.294;7.760;2023-05-23T18:32:18;12.13;;;2.67;;
30020;SDS011;16861;52.294;7.760;2023-05-23T18:34:46;11.18;;;2.88;;
30020;SDS011;16861;52.294;7.760;2023-05-23T18:37:12;13.35;;;2.72;;
30020;SDS011;16861;52.294;7.760;2023-05-23T18:39:39;7.57;;;2.47;;
30020;SDS011;16861;52.294;7.760;2023-05-23T18:42:06;11.75;;;2.55;;
30020;SDS011;16861;52.294;7.760;2023-05-23T18:44:32;8.02;;;2.17;;
30020;SDS011;16861;52.294;7.760;2023-05-23T18:47:00;9.27;;;2.55;;
30020;SDS011;16861;52.294;7.760;2023-05-23T18:49:26;14.50;;;2.65;;
30020;SDS011;16861;52.294;7.760;2023-05-23T18:51:53;7.18;;;2.40;;
30020;SDS011;16861;52.294;7.760;2023-05-23T18:54:20;9.13;;;2.58;;
30020;SDS011;16861;52.294;7.760;2023-05-23T18:56:46;10.30;;;2.47;;
30020;SDS011;16861;52.294;7.760;2023-05-23T18:59:13;9.70;;;2.42;;
30020;SDS011;16861;52.294;7.760;2023-05-23T19:01:41;6.55;;;2.20;;
30020;SDS011;16861;52.294;7.760;2023-05-23T19:04:08;11.75;;;3.00;;
30020;SDS011;16861;52.294;7.760;2023-05-23T19:06:35;13.70;;;3.33;;
30020;SDS011;16861;52.294;7.760;2023-05-23T19:09:01;10.73;;;3.08;;
30020;SDS011;16861;52.294;7.760;2023-05-23T19:11:31;9.85;;;2.78;;
30020;SDS011;16861;52.294;7.760;2023-05-23T19:13:58;8.05;;;2.17;;
30020;SDS011;16861;52.294;7.760;2023-05-23T19:16:24;7.55;;;2.30;;
30020;SDS011;16861;52.294;7.760;2023-05-23T19:18:51;13.30;;;2.70;;
30020;SDS011;16861;52.294;7.760;2023-05-23T19:21:18;7.05;;;2.20;;
30020;SDS011;16861;52.294;7.760;2023-05-23T19:23:44;9.00;;;2.35;;
30020;SDS011;16861;52.294;7.760;2023-05-23T19:26:11;9.82;;;2.10;;
30020;SDS011;16861;52.294;7.760;2023-05-23T19:28:38;10.65;;;2.47;;
30020;SDS011;16861;52.294;7.760;2023-05-23T19:31:05;9.50;;;2.47;;
30020;SDS011;16861;52.294;7.760;2023-05-23T19:33:33;7.57;;;2.08;;
30020;SDS011;16861;52.294;7.760;2023-05-23T19:35:59;8.30;;;2.53;;
30020;SDS011;16861;52.294;7.760;2023-05-23T19:38:26;8.85;;;2.33;;
30020;SDS011;16861;52.294;7.760;2023-05-23T19:40:52;7.03;;;2.47;;
30020;SDS011;16861;52.294;7.760;2023-05-23T19:43:19;13.50;;;2.72;;
30020;SDS011;16861;52.294;7.760;2023-05-23T19:45:46;9.43;;;2.47;;
30020;SDS011;16861;52.294;7.760;2023-05-23T19:48:12;9.38;;;2.70;;
30020;SDS011;16861;52.294;7.760;2023-05-23T19:50:39;10.27;;;2.75;;
30020;SDS011;16861;52.294;7.760;2023-05-23T19:53:08;7.97;;;2.30;;
30020;SDS011;16861;52.294;7.760;2023-05-23T19:55:35;11.48;;;2.95;;
30020;SDS011;16861;52.294;7.760;2023-05-23T19:58:01;22.02;;;3.05;;
30020;SDS011;16861;52.294;7.760;2023-05-23T20:00:28;11.80;;;2.47;;
30020;SDS011;16861;52.294;7.760;2023-05-23T20:02:54;10.82;;;2.22;;
30020;SDS011;16861;52.294;7.760;2023-05-23T20:05:22;8.82;;;2.05;;
30020;SDS011;16861;52.294;7.760;2023-05-23T20:07:48;8.75;;;2.35;;
30020;SDS011;16861;52.294;7.760;2023-05-23T20:10:15;9.95;;;2.20;;
30020;SDS011;16861;52.294;7.760;2023-05-23T20:12:41;13.77;;;2.42;;
30020;SDS011;16861;52.294;7.760;2023-05-23T20:15:08;9.27;;;2.10;;
30020;SDS011;16861;52.294;7.760;2023-05-23T20:17:35;15.05;;;2.60;;
30020;SDS011;16861;52.294;7.760;2023-05-23T20:22:48;9.90;;;2.17;;
30020;SDS011;16861;52.294;7.760;2023-05-23T20:25:15;7.88;;;1.75;;
30020;SDS011;16861;52.294;7.760;2023-05-23T20:27:42;12.02;;;2.25;;
30020;SDS011;16861;52.294;7.760;2023-05-23T20:30:09;10.45;;;1.83;;
30020;SDS011;16861;52.294;7.760;2023-05-23T20:32:36;10.48;;;2.17;;
30020;SDS011;16861;52.294;7.760;2023-05-23T20:35:03;11.57;;;2.60;;
30020;SDS011;16861;52.294;7.760;2023-05-23T20:37:30;10.25;;;1.80;;
30020;SDS011;16861;52.294;7.760;2023-05-23T20:39:56;11.10;;;2.38;;
30020;SDS011;16861;52.294;7.760;2023-05-23T20:42:25;13.38;;;2.75;;
30020;SDS011;16861;52.294;7.760;2023-05-23T20:44:53;8.40;;;1.85;;
30020;SDS011;16861;52.294;7.760;2023-05-23T20:47:22;8.85;;;2.03;;
30020;SDS011;16861;52.294;7.760;2023-05-23T20:49:50;8.68;;;1.88;;
30020;SDS011;16861;52.294;7.760;2023-05-23T20:52:17;11.65;;;2.45;;
30020;SDS011;16861;52.294;7.760;2023-05-23T20:54:43;13.82;;;2.40;;
30020;SDS011;16861;52.294;7.760;2023-05-23T20:57:13;8.93;;;2.40;;